Time;durP1;ratioP1;P1;durP2;ratioP2;P2;SDS_P1;SDS_P2;PMS_P1;PMS_P2;Temp;Humidity;BMP_temperature;BMP_pressure;BME280_temperature;BME280_humidity;BME280_pressure;Samples;Min_cycle;Max_cycle;Signal;HPM_P1;HPM_P2
2023/10/16 00:01:10;;;;;;;4.10;0.52;;;6.60;99.90;;;;;;5095962;28;20059;-32
2023/10/16 00:03:38;;;;;;;5.85;0.60;;;6.50;99.90;;;;;;5096909;28;20490;-32
2023/10/16 00:06:05;;;;;;;7.10;0.68;;;6.60;99.90;;;;;;5095950;28;20181;-34
2023/10/16 00:08:34;;;;;;;4.35;0.70;;;6.50;99.90;;;;;;5095632;28;20077;-32
2023/10/16 00:11:03;;;;;;;4.10;0.47;;;6.70;99.90;;;;;;5096841;28;20048;-32
2023/10/16 00:13:31;;;;;;;3.83;0.55;;;6.50;99.90;;;;;;5095529;28;20052;-34
2023/10/16 00:16:04;;;;;;;5.82;0.73;;;6.50;99.90;;;;;;5096975;28;20048;-33
2023/10/16 00:18:34;;;;;;;6.10;1.23;;;6.70;99.90;;;;;;5097190;28;20032;-32
2023/10/16 00:21:04;;;;;;;5.65;0.77;;;6.70;99.90;;;;;;5096594;28;20051;-32
2023/10/16 00:23:30;;;;;;;5.05;0.80;;;6.70;99.90;;;;;;5097415;28;20113;-33
2023/10/16 00:25:58;;;;;;;3.83;0.63;;;6.60;99.90;;;;;;5096787;28;20047;-32
2023/10/16 00:28:24;;;;;;;1.80;0.50;;;6.60;99.90;;;;;;5095249;28;20036;-33
2023/10/16 00:30:51;;;;;;;2.47;0.50;;;6.50;99.90;;;;;;5097237;28;20432;-32
2023/10/16 00:33:18;;;;;;;4.45;0.50;;;6.80;99.90;;;;;;5096364;28;20052;-32
2023/10/16 00:35:53;;;;;;;3.60;0.73;;;6.60;99.90;;;;;;5096300;28;20048;-32
2023/10/16 00:38:19;;;;;;;4.28;0.88;;;6.70;99.90;;;;;;5096836;28;20036;-32
2023/10/16 00:40:51;;;;;;;4.40;0.60;;;6.50;99.90;;;;;;5096267;28;20048;-33
2023/10/16 00:43:22;;;;;;;3.15;0.40;;;6.50;99.90;;;;;;5096205;28;20074;-32
2023/10/16 00:46:05;;;;;;;2.55;0.50;;;6.40;99.90;;;;;;5096772;28;20048;-32
2023/10/16 00:48:35;;;;;;;3.38;0.50;;;6.50;99.90;;;;;;5096157;28;20040;-33
2023/10/16 00:51:13;;;;;;;2.80;0.55;;;6.70;99.90;;;;;;5096887;28;20051;-33
2023/10/16 00:53:41;;;;;;;3.38;1.05;;;6.70;99.90;;;;;;5096305;28;20197;-32
2023/10/16 00:56:10;;;;;;;4.25;0.88;;;6.60;99.90;;;;;;5095856;28;20048;-32
2023/10/16 00:58:37;;;;;;;3.45;0.82;;;6.90;99.90;;;;;;5096034;28;20052;-31
2023/10/16 01:01:08;;;;;;;5.50;1.23;;;6.80;99.90;;;;;;5095369;28;20044;-32
2023/10/16 01:03:40;;;;;;;3.70;0.50;;;6.80;99.90;;;;;;5095836;28;20052;-32
2023/10/16 01:06:17;;;;;;;3.70;0.60;;;6.70;99.90;;;;;;5095807;28;20039;-33
2023/10/16 01:08:49;;;;;;;7.70;0.70;;;6.70;99.90;;;;;;5096046;28;20062;-32
2023/10/16 01:11:18;;;;;;;2.75;0.80;;;6.80;99.90;;;;;;5096509;28;20055;-32
2023/10/16 01:13:48;;;;;;;3.58;0.40;;;6.80;99.90;;;;;;5095584;28;20074;-32
2023/10/16 01:16:23;;;;;;;4.38;0.47;;;6.90;99.90;;;;;;5094394;28;20044;-32
2023/10/16 01:18:49;;;;;;;4.88;0.68;;;7.00;99.90;;;;;;5095449;28;20046;-32
2023/10/16 01:21:15;;;;;;;6.00;0.65;;;6.90;99.90;;;;;;5095483;28;20047;-32
2023/10/16 01:23:44;;;;;;;5.88;0.52;;;6.70;99.90;;;;;;5095368;28;20051;-32
2023/10/16 01:26:13;;;;;;;7.20;0.68;;;6.90;99.90;;;;;;5095385;28;20052;-32
2023/10/16 01:28:40;;;;;;;3.05;0.60;;;6.80;99.90;;;;;;5095376;28;20439;-32
2023/10/16 01:31:06;;;;;;;6.22;0.75;;;6.60;99.90;;;;;;5094947;28;20490;-32
2023/10/16 01:33:32;;;;;;;2.55;0.55;;;6.60;99.90;;;;;;5094893;28;20055;-34
2023/10/16 01:35:58;;;;;;;2.85;0.40;;;6.30;99.90;;;;;;5094745;28;20051;-33
2023/10/16 01:38:27;;;;;;;3.78;0.47;;;6.30;99.90;;;;;;5094936;28;20051;-33
2023/10/16 01:43:28;;;;;;;6.18;0.98;;;6.00;99.90;;;;;;5095866;28;20044;-33
2023/10/16 01:45:58;;;;;;;3.50;0.88;;;6.20;99.90;;;;;;5095512;28;20371;-33
2023/10/16 01:48:28;;;;;;;5.43;1.13;;;6.10;99.90;;;;;;5093922;28;20047;-32
2023/10/16 01:50:54;;;;;;;6.22;0.52;;;6.00;99.90;;;;;;5095121;28;20052;-32
2023/10/16 01:53:22;;;;;;;6.15;0.50;;;6.00;99.90;;;;;;5094837;28;20050;-33
2023/10/16 01:55:54;;;;;;;3.78;0.60;;;6.00;99.90;;;;;;5094811;28;20073;-32
2023/10/16 01:58:24;;;;;;;4.78;0.60;;;6.20;99.90;;;;;;5093065;28;20092;-32
2023/10/16 02:00:52;;;;;;;5.38;0.80;;;6.20;99.90;;;;;;5094934;28;20047;-31
2023/10/16 02:03:19;;;;;;;5.10;0.68;;;6.40;99.90;;;;;;5095495;28;20040;-31
2023/10/16 02:05:46;;;;;;;5.30;0.70;;;6.60;99.90;;;;;;5094283;28;20476;-32
2023/10/16 02:08:15;;;;;;;5.57;0.95;;;6.50;99.90;;;;;;5094546;28;20478;-31
2023/10/16 02:10:44;;;;;;;3.70;0.68;;;6.50;99.90;;;;;;5093974;28;20131;-32
2023/10/16 02:13:11;;;;;;;2.72;0.80;;;6.60;99.90;;;;;;5093944;28;20044;-32
2023/10/16 02:15:37;;;;;;;8.13;0.80;;;6.50;99.90;;;;;;5094012;28;20393;-31
2023/10/16 02:18:09;;;;;;;4.97;1.27;;;6.60;99.90;;;;;;5094261;28;20044;-32
2023/10/16 02:20:38;;;;;;;3.95;0.82;;;6.70;99.90;;;;;;5094337;28;20098;-31
2023/10/16 02:23:07;;;;;;;3.88;1.10;;;6.60;99.90;;;;;;5076693;28;20424;-31
2023/10/16 02:25:34;;;;;;;4.82;0.63;;;6.60;99.90;;;;;;5076168;28;20432;-30
2023/10/16 02:28:00;;;;;;;2.30;0.47;;;6.60;99.90;;;;;;5092791;28;20502;-32
2023/10/16 02:32:59;;;;;;;6.57;1.27;;;6.40;99.90;;;;;;5094400;28;20474;-31
2023/10/16 02:35:24;;;;;;;;;;;6.50;99.90;;;;;;5093570;28;20094;-32
2023/10/16 02:37:57;;;;;;;3.42;0.55;;;6.50;99.90;;;;;;5092787;28;19971;-31
2023/10/16 02:40:26;;;;;;;6.43;0.90;;;6.70;99.90;;;;;;5094099;28;20056;-31
2023/10/16 02:42:56;;;;;;;8.57;0.95;;;6.60;99.90;;;;;;5094501;28;20097;-31
2023/10/16 02:45:24;;;;;;;4.57;0.55;;;6.40;99.90;;;;;;5093974;28;20100;-31
2023/10/16 02:47:51;;;;;;;8.32;0.90;;;6.30;99.90;;;;;;5094199;28;20086;-31
2023/10/16 02:50:16;;;;;;;4.85;1.00;;;6.40;99.90;;;;;;5076101;28;20055;-31
2023/10/16 02:52:42;;;;;;;5.70;0.75;;;6.60;99.90;;;;;;5093890;28;20439;-31
2023/10/16 02:55:10;;;;;;;6.97;1.10;;;6.80;99.90;;;;;;5092897;28;20391;-31
2023/10/16 02:57:40;;;;;;;5.45;1.27;;;6.70;99.90;;;;;;5092481;28;20131;-32
2023/10/16 03:00:17;;;;;;;5.90;0.85;;;6.80;99.90;;;;;;5093023;28;20052;-31
2023/10/16 03:02:47;;;;;;;5.07;0.95;;;7.00;99.90;;;;;;5094067;28;20470;-31
2023/10/16 03:05:22;;;;;;;4.72;1.27;;;6.90;99.90;;;;;;5093811;28;20133;-30
2023/10/16 03:07:54;;;;;;;4.43;0.75;;;7.00;99.90;;;;;;5093738;28;20051;-30
2023/10/16 03:10:20;;;;;;;7.00;0.70;;;7.30;99.90;;;;;;5092255;28;20489;-30
2023/10/16 03:12:50;;;;;;;4.72;0.77;;;7.30;99.90;;;;;;5092530;28;20050;-28
2023/10/16 03:15:29;;;;;;;4.72;0.57;;;7.50;99.90;;;;;;5093623;28;20051;-27
2023/10/16 03:17:55;;;;;;;3.97;0.75;;;7.40;99.90;;;;;;5093886;28;20474;-27
2023/10/16 03:20:23;;;;;;;7.85;0.90;;;7.40;99.90;;;;;;5092431;28;20052;-28
2023/10/16 03:22:50;;;;;;;2.60;0.75;;;7.20;99.90;;;;;;5095385;28;20375;-28
2023/10/16 03:28:17;;;;;;;8.32;0.95;;;7.20;99.90;;;;;;5060821;28;20111;-28
2023/10/16 03:30:44;;;;;;;3.53;0.80;;;7.40;99.90;;;;;;5080001;28;20055;-28
2023/10/16 03:33:14;;;;;;;5.65;0.93;;;7.20;99.90;;;;;;5097543;28;20097;-27
2023/10/16 03:35:43;;;;;;;6.78;0.73;;;7.30;99.90;;;;;;5098365;28;20432;-28
2023/10/16 03:38:11;;;;;;;7.07;0.77;;;7.50;99.90;;;;;;5097948;28;20079;-27
2023/10/16 03:40:37;;;;;;;2.63;0.70;;;7.30;99.90;;;;;;5096453;28;20044;-29
2023/10/16 03:43:03;;;;;;;8.52;1.08;;;7.40;99.90;;;;;;5095849;28;20494;-28
2023/10/16 03:45:29;;;;;;;12.68;1.60;;;7.40;99.90;;;;;;5096147;28;20062;-28
2023/10/16 03:47:57;;;;;;;5.38;0.75;;;7.50;99.90;;;;;;5097268;28;20043;-27
2023/10/16 03:50:25;;;;;;;3.28;0.50;;;7.40;99.90;;;;;;5097249;28;20047;-27
2023/10/16 03:52:54;;;;;;;5.50;0.95;;;7.40;99.90;;;;;;5096037;28;20405;-28
2023/10/16 03:55:24;;;;;;;3.80;1.35;;;7.20;99.90;;;;;;5097114;28;20044;-27
2023/10/16 03:57:51;;;;;;;6.38;1.02;;;7.40;99.90;;;;;;5096779;28;20052;-27
2023/10/16 04:00:33;;;;;;;3.90;0.77;;;7.30;99.90;;;;;;5096824;28;20059;-28
2023/10/16 04:02:59;;;;;;;4.50;1.20;;;7.30;99.90;;;;;;5095926;28;20048;-28
2023/10/16 04:08:10;;;;;;;5.05;0.80;;;7.10;99.90;;;;;;5096887;28;20048;-28
2023/10/16 04:10:40;;;;;;;2.95;0.77;;;7.30;99.90;;;;;;5095840;28;20048;-27
2023/10/16 04:13:07;;;;;;;6.32;0.90;;;7.10;99.90;;;;;;5096758;28;20047;-27
2023/10/16 04:26:47;;;;;;;;;;;6.60;99.90;;;;;;5097822;28;20059;-27
2023/10/16 04:31:44;;;;;;;4.00;0.63;;;6.00;99.90;;;;;;5096419;28;20076;-27
2023/10/16 04:36:53;;;;;;;7.10;1.05;;;5.90;99.90;;;;;;5096651;28;20048;-27
2023/10/16 04:50:31;;;;;;;5.72;1.27;;;6.20;99.90;;;;;;5064576;28;20454;-28
2023/10/16 05:22:02;;;;;;;7.95;1.10;;;4.80;99.90;;;;;;5077472;28;20186;-27
2023/10/16 06:14:13;;;;;;;5.25;1.58;;;6.50;99.90;;;;;;5094401;28;20536;-26
2023/10/16 06:16:45;;;;;;;7.65;1.70;;;6.40;99.90;;;;;;5094711;28;20079;-26
2023/10/16 06:19:14;;;;;;;7.47;1.37;;;6.40;99.90;;;;;;5076137;28;20375;-26
2023/10/16 06:22:06;;;;;;;4.32;1.10;;;6.50;99.90;;;;;;5093995;28;20384;-26
2023/10/16 06:24:35;;;;;;;2.58;0.80;;;6.50;99.90;;;;;;5094655;28;20123;-26
2023/10/16 06:27:09;;;;;;;8.45;1.67;;;6.50;99.90;;;;;;5094246;28;20047;-26
2023/10/16 06:29:52;;;;;;;;;;;6.90;99.90;;;;;;5095530;28;20043;-26
2023/10/16 06:32:19;;;;;;;8.50;1.40;;;6.70;99.90;;;;;;5076648;28;19968;-26
2023/10/16 06:34:52;;;;;;;8.82;1.63;;;6.90;99.90;;;;;;5094131;28;20048;-26
2023/10/16 06:37:18;;;;;;;6.30;1.65;;;6.70;99.90;;;;;;5093693;28;20052;-27
2023/10/16 06:39:47;;;;;;;5.57;1.33;;;7.20;99.90;;;;;;5093079;28;20052;-26
2023/10/16 06:42:19;;;;;;;9.63;1.50;;;7.20;99.90;;;;;;5093744;28;20506;-26
2023/10/16 06:45:02;;;;;;;7.37;1.40;;;7.20;99.90;;;;;;5093372;28;20059;-26
2023/10/16 06:47:47;;;;;;;6.82;1.05;;;7.10;99.90;;;;;;5076143;28;20044;-27
2023/10/16 06:53:09;;;;;;;6.28;1.67;;;7.00;99.90;;;;;;5093230;28;20482;-26
2023/10/16 06:55:35;;;;;;;5.30;1.00;;;7.00;99.90;;;;;;5094721;28;20131;-26
2023/10/16 06:58:01;;;;;;;3.00;0.98;;;7.00;99.90;;;;;;5093218;28;20516;-26
2023/10/16 07:00:27;;;;;;;5.55;1.00;;;7.20;99.90;;;;;;5092690;28;20512;-26
2023/10/16 07:02:55;;;;;;;5.53;2.28;;;7.20;99.90;;;;;;5092583;28;20044;-26
2023/10/16 07:05:24;;;;;;;8.30;1.40;;;7.10;99.90;;;;;;5093751;28;20105;-26
2023/10/16 07:07:52;;;;;;;14.32;2.17;;;7.00;99.90;;;;;;5094002;28;20390;-26
2023/10/16 07:10:20;;;;;;;5.63;1.10;;;7.20;99.90;;;;;;5092436;28;20055;-26
2023/10/16 07:12:58;;;;;;;8.98;1.35;;;7.00;99.90;;;;;;5093654;28;20051;-26
2023/10/16 07:15:30;;;;;;;14.30;3.53;;;7.30;99.90;;;;;;5093681;28;20044;-26
2023/10/16 07:18:03;;;;;;;14.57;2.67;;;7.00;99.90;;;;;;5093645;28;20036;-26
2023/10/16 07:20:29;;;;;;;9.73;1.50;;;7.30;99.90;;;;;;5093721;28;20086;-26
2023/10/16 07:23:09;;;;;;;6.80;1.92;;;7.20;99.90;;;;;;5093553;28;20055;-26
2023/10/16 07:25:50;;;;;;;5.22;1.20;;;7.20;99.90;;;;;;5094438;28;20048;-26
2023/10/16 07:28:20;;;;;;;10.02;1.08;;;7.40;99.90;;;;;;5094125;28;20437;-26
2023/10/16 07:30:46;;;;;;;5.15;1.33;;;7.60;99.90;;;;;;5093183;28;20429;-26
2023/10/16 07:33:16;;;;;;;8.35;1.27;;;7.60;99.90;;;;;;5093764;28;20110;-26
2023/10/16 07:35:46;;;;;;;9.00;1.83;;;7.80;99.90;;;;;;5093508;28;20178;-26
2023/10/16 07:38:13;;;;;;;7.47;1.50;;;7.90;99.90;;;;;;5093940;28;20047;-26
2023/10/16 07:40:39;;;;;;;5.03;1.33;;;8.10;99.90;;;;;;5093118;28;20137;-27
2023/10/16 07:43:08;;;;;;;9.82;2.38;;;8.20;99.90;;;;;;5093336;28;20047;-26
2023/10/16 07:45:34;;;;;;;8.82;1.65;;;8.50;99.90;;;;;;5059950;28;20044;-27
2023/10/16 07:48:18;;;;;;;12.32;2.40;;;8.60;99.90;;;;;;5075391;28;20042;-26
2023/10/16 07:50:44;;;;;;;15.32;2.22;;;8.60;99.90;;;;;;5093334;28;20058;-26
2023/10/16 07:53:17;;;;;;;8.63;1.15;;;8.80;99.90;;;;;;5093838;28;20050;-26
2023/10/16 07:55:50;;;;;;;11.05;1.52;;;8.90;99.90;;;;;;5093326;28;20048;-27
2023/10/16 07:58:23;;;;;;;9.77;2.33;;;9.00;99.90;;;;;;5093439;28;20071;-26
2023/10/16 08:01:32;;;;;;;8.25;1.15;;;9.20;99.90;;;;;;5092490;28;20056;-27
2023/10/16 08:03:45;;;;;;;5.20;1.23;;;9.30;99.90;;;;;;5090973;28;20052;-27
2023/10/16 08:06:17;;;;;;;12.98;1.75;;;9.50;99.90;;;;;;5093158;28;20048;-27
2023/10/16 08:08:48;;;;;;;9.85;1.58;;;9.50;99.90;;;;;;5092638;28;20044;-28
2023/10/16 08:11:20;;;;;;;17.00;1.25;;;9.60;99.90;;;;;;5096996;28;20126;-27
2023/10/16 08:13:51;;;;;;;5.37;0.97;;;9.60;99.90;;;;;;5096932;28;20048;-27
2023/10/16 08:16:18;;;;;;;11.63;1.60;;;9.60;99.90;;;;;;5096735;28;20289;-27
2023/10/16 08:18:48;;;;;;;8.40;1.38;;;9.70;99.90;;;;;;5095505;28;20051;-27
2023/10/16 08:21:26;;;;;;;4.65;0.73;;;9.80;99.90;;;;;;5095704;28;20056;-27
2023/10/16 08:23:55;;;;;;;9.75;1.35;;;9.80;99.90;;;;;;5097248;28;20040;-27
2023/10/16 08:26:28;;;;;;;10.27;0.93;;;9.90;99.90;;;;;;5095367;28;20187;-27
2023/10/16 08:31:47;;;;;;;4.90;1.42;;;9.90;99.90;;;;;;5097309;28;20102;-27
2023/10/16 08:34:19;;;;;;;7.15;1.05;;;10.00;99.90;;;;;;5096314;28;20055;-27
2023/10/16 08:36:50;;;;;;;7.40;1.25;;;10.00;99.90;;;;;;5096377;28;20055;-27
2023/10/16 08:39:19;;;;;;;7.70;1.15;;;9.90;99.90;;;;;;5096765;28;20187;-27
2023/10/16 08:41:51;;;;;;;3.65;0.75;;;9.80;99.90;;;;;;5096229;28;20044;-26
2023/10/16 08:44:18;;;;;;;10.95;1.33;;;9.70;99.90;;;;;;5094984;28;20058;-27
2023/10/16 08:49:25;;;;;;;5.90;0.88;;;9.90;99.90;;;;;;5078871;28;20143;-27
2023/10/16 08:51:54;;;;;;;6.22;1.17;;;10.00;99.90;;;;;;5095126;28;20127;-28
2023/10/16 08:54:35;;;;;;;6.72;1.25;;;10.10;99.90;;;;;;5096063;28;20158;-28
2023/10/16 08:57:03;;;;;;;8.43;1.30;;;10.40;99.90;;;;;;5096410;28;20048;-28
2023/10/16 08:59:30;;;;;;;10.93;1.70;;;10.70;99.90;;;;;;5095901;28;20055;-27
2023/10/16 09:02:01;;;;;;;14.35;2.67;;;10.90;99.90;;;;;;5095929;28;20044;-26
2023/10/16 09:04:27;;;;;;;8.90;1.25;;;11.00;99.90;;;;;;5096125;28;20056;-26
2023/10/16 09:06:54;;;;;;;6.35;1.45;;;11.10;99.90;;;;;;5095740;28;20048;-26
2023/10/16 09:09:25;;;;;;;7.50;1.10;;;11.10;99.90;;;;;;5095696;28;20393;-27
2023/10/16 09:11:59;;;;;;;2.97;0.80;;;10.90;99.90;;;;;;5095322;28;20470;-26
2023/10/16 09:14:26;;;;;;;7.95;0.98;;;11.00;99.90;;;;;;5095672;28;20048;-26
2023/10/16 09:16:55;;;;;;;4.60;0.68;;;11.00;99.90;;;;;;5095260;28;20414;-26
2023/10/16 09:19:32;;;;;;;8.48;0.98;;;11.00;99.90;;;;;;5095468;28;20048;-26
2023/10/16 09:21:58;;;;;;;7.90;1.38;;;11.00;99.90;;;;;;5095969;28;20448;-26
2023/10/16 09:24:24;;;;;;;4.72;0.68;;;11.00;99.90;;;;;;5077636;28;20061;-26
2023/10/16 09:26:54;;;;;;;3.45;0.73;;;11.00;99.90;;;;;;5095309;28;20044;-26
2023/10/16 09:29:27;;;;;;;3.50;1.27;;;11.10;99.90;;;;;;5095285;28;20397;-27
2023/10/16 09:31:53;;;;;;;1.73;0.80;;;11.20;99.90;;;;;;5095304;28;20576;-26
2023/10/16 09:34:22;;;;;;;2.63;0.93;;;11.20;99.90;;;;;;5095250;28;20054;-26
2023/10/16 09:39:37;;;;;;;2.88;0.40;;;11.90;99.90;;;;;;5095040;28;20051;-27
2023/10/16 09:42:12;;;;;;;3.45;0.60;;;12.50;99.90;;;;;;5094072;28;20582;-27
2023/10/16 09:44:44;;;;;;;6.20;0.50;;;12.90;99.90;;;;;;5095042;28;20048;-28
2023/10/16 09:47:25;;;;;;;6.03;0.70;;;13.10;99.90;;;;;;5095541;28;20040;-28
2023/10/16 09:49:55;;;;;;;4.20;1.08;;;12.80;99.90;;;;;;5079489;28;20048;-27
2023/10/16 09:52:22;;;;;;;6.90;0.60;;;12.30;99.90;;;;;;5095654;28;20087;-28
2023/10/16 09:54:49;;;;;;;5.60;1.17;;;11.80;99.90;;;;;;5076671;28;20398;-28
2023/10/16 09:57:19;;;;;;;9.75;0.80;;;11.50;99.90;;;;;;5093278;28;20044;-28
2023/10/16 09:59:45;;;;;;;3.25;0.70;;;11.30;99.90;;;;;;5094131;28;20397;-27
2023/10/16 10:02:18;;;;;;;3.05;0.55;;;11.20;99.90;;;;;;5094628;28;20406;-27
2023/10/16 10:05:09;;;;;;;6.83;0.60;;;11.50;99.90;;;;;;5095549;28;20055;-29
2023/10/16 10:07:38;;;;;;;6.78;0.70;;;12.40;99.90;;;;;;5077388;28;20407;-28
2023/10/16 10:13:15;;;;;;;3.28;0.50;;;13.00;99.90;;;;;;5095343;28;20105;-30
2023/10/16 10:15:47;;;;;;;10.52;1.58;;;12.90;1.00;;;;;;5095320;28;20080;-29
2023/10/16 10:18:42;;;;;;;2.25;0.40;;;12.90;99.90;;;;;;5095184;28;20044;-28
2023/10/16 10:21:18;;;;;;;3.83;0.65;;;12.80;99.90;;;;;;5093989;28;20498;-29
2023/10/16 10:23:48;;;;;;;5.30;1.27;;;12.60;99.90;;;;;;5094586;28;20582;-29
2023/10/16 10:26:20;;;;;;;6.53;0.80;;;12.00;1.00;;;;;;5095069;28;20044;-29
2023/10/16 10:29:11;;;;;;;8.98;0.63;;;11.70;1.00;;;;;;5093267;28;20482;-29
2023/10/16 10:31:51;;;;;;;4.85;0.95;;;11.50;99.90;;;;;;5075977;28;20478;-29
2023/10/16 10:34:23;;;;;;;3.97;0.50;;;11.40;1.00;;;;;;5094423;28;20052;-28
2023/10/16 10:36:50;;;;;;;4.72;0.60;;;11.30;1.00;;;;;;5094199;28;20549;-28
2023/10/16 10:39:21;;;;;;;5.07;0.73;;;11.20;6.80;;;;;;5094840;28;20046;-28
2023/10/16 10:41:53;;;;;;;6.82;0.82;;;11.60;99.90;;;;;;5094044;28;20145;-29
2023/10/16 10:44:44;;;;;;;6.95;0.95;;;12.30;1.00;;;;;;5094650;28;20091;-30
2023/10/16 10:47:32;;;;;;;7.03;0.80;;;12.90;99.90;;;;;;5094803;28;20052;-29
2023/10/16 10:50:00;;;;;;;8.40;0.77;;;13.20;1.00;;;;;;5094005;28;20044;-29
2023/10/16 10:52:32;;;;;;;4.35;0.80;;;13.60;99.90;;;;;;5092928;28;20044;-29
2023/10/16 10:54:59;;;;;;;4.70;0.77;;;13.80;1.00;;;;;;5092941;28;20493;-30
2023/10/16 10:57:26;;;;;;;4.22;0.82;;;13.80;30.20;;;;;;5093721;28;20513;-29
2023/10/16 11:00:04;;;;;;;7.40;1.15;;;14.10;99.90;;;;;;5092951;28;20052;-30
2023/10/16 11:04:59;;;;;;;5.38;0.88;;;14.40;99.90;;;;;;5093439;28;20056;-30
2023/10/16 11:07:39;;;;;;;4.88;0.50;;;14.40;99.90;;;;;;5092520;28;20135;-31
2023/10/16 11:10:06;;;;;;;8.82;1.15;;;14.50;82.70;;;;;;5094595;28;20047;-30
2023/10/16 11:12:33;;;;;;;5.30;1.23;;;15.00;99.90;;;;;;5092718;28;20478;-30
2023/10/16 11:15:01;;;;;;;5.70;0.80;;;15.30;99.90;;;;;;5093700;28;20138;-30
2023/10/16 11:17:30;;;;;;;7.95;1.58;;;15.30;1.00;;;;;;5093632;28;20052;-32
2023/10/16 11:19:56;;;;;;;5.28;0.90;;;15.30;1.00;;;;;;5093718;28;20629;-31
2023/10/16 11:22:31;;;;;;;8.05;0.80;;;15.10;1.00;;;;;;5093305;28;20060;-30
2023/10/16 11:24:57;;;;;;;4.20;0.65;;;14.90;1.00;;;;;;5093329;28;20393;-31
2023/10/16 11:27:23;;;;;;;4.00;0.80;;;14.30;1.00;;;;;;5093534;28;20062;-31
2023/10/16 11:29:52;;;;;;;8.50;1.10;;;13.90;4.80;;;;;;5093778;28;20502;-31
2023/10/16 11:32:25;;;;;;;6.88;1.48;;;13.50;99.90;;;;;;5093451;28;20051;-31
2023/10/16 11:34:59;;;;;;;11.73;2.25;;;13.20;99.90;;;;;;5093545;28;20051;-30
2023/10/16 11:37:25;;;;;;;3.25;1.02;;;13.30;1.00;;;;;;5094038;28;20124;-30
2023/10/16 11:39:54;;;;;;;5.90;0.88;;;13.50;1.00;;;;;;5076507;28;20048;-31
2023/10/16 11:42:20;;;;;;;3.88;1.02;;;13.70;1.00;;;;;;5093424;28;20048;-31
2023/10/16 11:44:51;;;;;;;7.00;0.70;;;14.10;99.90;;;;;;5095834;28;20149;-31
2023/10/16 11:47:18;;;;;;;3.95;0.75;;;14.10;1.00;;;;;;5096636;28;20486;-30
2023/10/16 11:49:53;;;;;;;4.00;0.60;;;14.20;99.90;;;;;;5097317;28;20059;-31
2023/10/16 11:52:19;;;;;;;4.75;0.73;;;14.30;99.90;;;;;;5097237;28;20083;-31
2023/10/16 11:54:46;;;;;;;8.18;1.38;;;14.30;99.90;;;;;;5097701;28;20047;-31
2023/10/16 11:57:16;;;;;;;4.97;0.80;;;14.00;86.80;;;;;;5095884;28;20544;-30
2023/10/16 11:59:43;;;;;;;6.72;0.90;;;14.10;99.90;;;;;;5096750;28;20044;-31
2023/10/16 12:02:13;;;;;;;8.05;1.63;;;14.10;1.00;;;;;;5096931;28;20169;-31
2023/10/16 12:04:42;;;;;;;5.03;0.70;;;14.00;99.90;;;;;;5097235;28;20101;-31
2023/10/16 12:07:09;;;;;;;8.85;1.48;;;13.80;1.00;;;;;;5096929;28;20071;-32
2023/10/16 12:09:42;;;;;;;5.35;0.60;;;13.70;99.90;;;;;;5096890;28;20051;-30
2023/10/16 12:12:08;;;;;;;;;;;13.50;99.90;;;;;;5096230;28;20126;-30
2023/10/16 12:14:37;;;;;;;5.78;0.65;;;13.20;99.90;;;;;;5096161;28;19974;-30
2023/10/16 12:17:06;;;;;;;4.38;0.82;;;13.00;99.90;;;;;;5096742;28;20052;-31
2023/10/16 12:19:34;;;;;;;4.65;0.60;;;12.80;1.00;;;;;;5096047;28;20087;-31
2023/10/16 12:22:00;;;;;;;5.28;0.95;;;12.80;1.00;;;;;;5097205;28;20044;-31
2023/10/16 12:24:27;;;;;;;9.88;1.15;;;12.80;1.00;;;;;;5078766;28;20051;-30
2023/10/16 12:26:53;;;;;;;6.05;0.90;;;12.90;1.00;;;;;;5096594;28;20210;-31
2023/10/16 12:29:19;;;;;;;4.72;0.95;;;13.00;1.00;;;;;;5096507;28;20124;-30
2023/10/16 12:31:45;;;;;;;8.38;0.95;;;13.00;1.00;;;;;;5096740;28;20079;-31
2023/10/16 12:34:11;;;;;;;3.90;0.55;;;12.90;99.90;;;;;;5096421;28;20075;-31
2023/10/16 12:36:43;;;;;;;4.15;0.80;;;13.00;99.90;;;;;;5096670;28;20055;-34
2023/10/16 12:39:24;;;;;;;5.95;0.93;;;13.20;1.00;;;;;;5095860;28;20367;-31
2023/10/16 12:42:01;;;;;;;6.07;0.93;;;13.30;99.90;;;;;;5096934;28;20079;-30
2023/10/16 12:44:28;;;;;;;6.50;0.88;;;13.50;1.00;;;;;;5095211;28;20101;-32
2023/10/16 12:46:55;;;;;;;13.82;1.02;;;13.60;1.00;;;;;;5078309;28;20493;-31
2023/10/16 12:49:21;;;;;;;5.85;0.95;;;13.70;99.90;;;;;;5096175;28;20123;-31
2023/10/16 12:51:49;;;;;;;5.70;1.05;;;13.70;99.90;;;;;;5096058;28;20082;-31
2023/10/16 12:54:16;;;;;;;5.15;0.70;;;13.90;99.90;;;;;;5096033;28;20100;-31
2023/10/16 12:56:45;;;;;;;9.15;1.08;;;13.80;99.90;;;;;;5095277;28;20126;-30
2023/10/16 12:59:11;;;;;;;5.28;0.75;;;13.50;1.00;;;;;;5094157;28;20084;-30
2023/10/16 13:01:40;;;;;;;7.32;1.52;;;13.40;1.00;;;;;;5095808;28;20059;-30
2023/10/16 13:04:13;;;;;;;7.20;1.00;;;13.30;1.00;;;;;;5095883;28;20044;-30
2023/10/16 13:06:39;;;;;;;3.75;0.95;;;13.50;99.90;;;;;;5079583;28;20048;-30
2023/10/16 13:09:05;;;;;;;5.30;0.77;;;13.70;99.90;;;;;;5095775;28;20043;-30
2023/10/16 13:11:32;;;;;;;4.68;1.02;;;13.80;15.30;;;;;;5095729;28;20047;-31
2023/10/16 13:13:57;;;;;;;4.85;1.05;;;13.80;1.00;;;;;;5094741;28;20050;-30
2023/10/16 13:16:24;;;;;;;4.40;1.25;;;14.00;1.00;;;;;;5095586;28;20130;-30
2023/10/16 13:19:00;;;;;;;5.60;0.70;;;14.20;1.00;;;;;;5094945;28;20355;-31
2023/10/16 13:21:35;;;;;;;4.43;0.60;;;14.10;99.90;;;;;;5095577;28;20044;-30
2023/10/16 13:24:14;;;;;;;3.42;0.38;;;14.00;1.00;;;;;;5095564;28;20478;-30
2023/10/16 13:26:41;;;;;;;2.85;0.55;;;13.80;1.00;;;;;;5095736;28;20047;-30
2023/10/16 13:29:09;;;;;;;6.13;0.63;;;13.90;1.00;;;;;;5095361;28;20069;-30
2023/10/16 13:31:40;;;;;;;6.13;0.75;;;13.90;1.00;;;;;;5095320;28;20126;-30
2023/10/16 13:34:11;;;;;;;3.58;0.70;;;13.80;99.90;;;;;;5095318;28;20044;-30
2023/10/16 13:36:56;;;;;;;4.32;0.95;;;13.80;1.00;;;;;;5095373;28;20048;-29
2023/10/16 13:39:26;;;;;;;7.30;0.82;;;13.70;25.40;;;;;;5095450;28;20065;-29
2023/10/16 13:41:53;;;;;;;6.28;0.93;;;13.60;99.90;;;;;;5094976;28;20437;-29
2023/10/16 13:44:20;;;;;;;3.03;0.98;;;13.50;1.00;;;;;;5095135;28;20056;-29
2023/10/16 13:46:47;;;;;;;3.00;0.52;;;13.60;1.00;;;;;;5095290;28;20105;-30
2023/10/16 13:49:14;;;;;;;8.63;1.48;;;13.50;1.00;;;;;;5095225;28;20387;-30
2023/10/16 13:51:41;;;;;;;5.97;0.93;;;13.50;1.00;;;;;;5094976;28;20052;-29
2023/10/16 13:54:11;;;;;;;5.30;0.60;;;13.40;1.00;;;;;;5094869;28;20135;-29
2023/10/16 13:56:42;;;;;;;6.13;0.43;;;13.40;1.00;;;;;;5093964;28;20152;-29
2023/10/16 13:59:08;;;;;;;3.45;0.70;;;13.30;99.90;;;;;;5094447;28;20068;-28
2023/10/16 14:01:40;;;;;;;5.57;1.00;;;13.20;99.90;;;;;;5093628;28;20091;-29
2023/10/16 14:04:16;;;;;;;4.18;0.68;;;13.10;99.90;;;;;;5094741;28;20051;-28
2023/10/16 14:06:51;;;;;;;5.15;1.02;;;13.10;99.90;;;;;;5094480;28;20454;-29
2023/10/16 14:09:21;;;;;;;5.30;1.02;;;13.00;95.60;;;;;;5093877;28;20549;-29
2023/10/16 14:11:48;;;;;;;2.92;0.75;;;12.90;99.90;;;;;;5094622;28;20486;-28
2023/10/16 14:14:21;;;;;;;3.70;1.00;;;12.90;99.90;;;;;;5095033;28;20044;-29
2023/10/16 14:16:52;;;;;;;9.52;1.42;;;12.80;1.00;;;;;;5093260;28;20087;-29
2023/10/16 14:19:22;;;;;;;4.90;0.77;;;12.80;99.90;;;;;;5094401;28;20047;-28
2023/10/16 14:21:52;;;;;;;2.13;0.50;;;12.80;1.00;;;;;;5093465;28;20086;-29
2023/10/16 14:24:24;;;;;;;7.15;0.85;;;12.80;99.90;;;;;;5094361;28;20082;-28
2023/10/16 14:26:51;;;;;;;3.77;0.70;;;12.70;1.00;;;;;;5093192;28;20105;-29
2023/10/16 14:29:20;;;;;;;6.32;0.80;;;12.70;99.90;;;;;;5093325;28;20051;-29
2023/10/16 14:31:50;;;;;;;8.20;1.27;;;12.70;94.50;;;;;;5094186;28;20504;-30
2023/10/16 14:34:19;;;;;;;6.88;1.20;;;12.70;99.90;;;;;;5093207;28;20056;-29
2023/10/16 14:36:49;;;;;;;2.70;0.45;;;12.70;99.90;;;;;;5094133;28;20044;-28
2023/10/16 14:39:15;;;;;;;6.57;0.50;;;12.70;99.90;;;;;;5094891;28;20124;-29
2023/10/16 14:41:41;;;;;;;4.65;0.50;;;12.60;99.90;;;;;;5094060;28;20063;-29
2023/10/16 14:44:11;;;;;;;6.43;0.93;;;12.70;1.00;;;;;;5093962;28;20394;-28
2023/10/16 14:46:38;;;;;;;5.35;0.77;;;12.70;1.00;;;;;;5094018;28;20050;-28
2023/10/16 14:49:10;;;;;;;4.35;0.85;;;12.60;1.00;;;;;;5092981;28;20105;-28
2023/10/16 14:51:40;;;;;;;7.95;0.93;;;12.70;24.30;;;;;;5094528;28;20420;-28
2023/10/16 14:54:10;;;;;;;5.63;0.63;;;12.60;99.90;;;;;;5093603;28;20501;-29
2023/10/16 14:56:42;;;;;;;5.45;0.88;;;12.60;99.90;;;;;;5093883;28;20615;-28
2023/10/16 14:59:11;;;;;;;9.80;0.93;;;12.50;99.90;;;;;;5093804;28;20048;-28
2023/10/16 15:01:37;;;;;;;4.78;0.75;;;12.50;83.10;;;;;;5092878;28;20085;-28
2023/10/16 15:04:08;;;;;;;4.85;0.57;;;12.40;1.00;;;;;;5094087;28;20075;-28
2023/10/16 15:06:35;;;;;;;4.30;0.80;;;12.30;87.10;;;;;;5093656;28;20047;-28
2023/10/16 15:09:09;;;;;;;3.88;0.75;;;12.20;43.40;;;;;;5093676;28;20043;-29
2023/10/16 15:11:35;;;;;;;3.78;0.73;;;12.20;99.90;;;;;;5076915;28;20044;-28
2023/10/16 15:14:01;;;;;;;5.90;1.05;;;12.10;98.10;;;;;;5093678;28;20050;-28
2023/10/16 15:16:27;;;;;;;7.28;1.27;;;12.10;99.90;;;;;;5092991;28;20048;-28
2023/10/16 15:18:53;;;;;;;7.18;0.73;;;12.00;99.90;;;;;;5076993;28;20040;-27
2023/10/16 15:21:19;;;;;;;7.78;0.90;;;12.00;99.90;;;;;;5096884;28;20047;-29
2023/10/16 15:23:45;;;;;;;6.03;0.55;;;11.90;99.90;;;;;;5097748;28;20101;-27